Time;durP1;ratioP1;P1;durP2;ratioP2;P2;SDS_P1;SDS_P2;PMS_P1;PMS_P2;Temp;Humidity;BMP_temperature;BMP_pressure;BME280_temperature;BME280_humidity;BME280_pressure;Samples;Min_cycle;Max_cycle;Signal;HPM_P1;HPM_P2
2022/02/07 00:04:36;;;;;;;0.00;0.00;;;6.70;93.20;;;;;;5012714;28;20041;-83
2022/02/07 00:07:04;;;;;;;0.17;0.00;;;6.70;93.50;;;;;;5026436;28;20076;-81
2022/02/07 00:09:30;;;;;;;0.03;0.00;;;6.80;93.40;;;;;;5023070;28;20200;-83
2022/02/07 00:11:56;;;;;;;0.25;0.10;;;6.00;92.20;;;;;;5034170;28;20037;-85
2022/02/07 00:14:21;;;;;;;0.03;0.00;;;4.40;95.10;;;;;;5036156;28;20029;-85
2022/02/07 00:16:47;;;;;;;0.08;0.00;;;3.30;99.60;;;;;;5020119;28;20119;-85
2022/02/07 00:19:23;;;;;;;0.22;0.00;;;2.70;99.90;;;;;;5017161;28;20041;-86
2022/02/07 00:21:50;;;;;;;0.32;0.00;;;2.30;99.90;;;;;;5045365;23;20088;-86
2022/02/07 00:24:16;;;;;;;0.00;0.00;;;2.10;99.90;;;;;;5024186;28;20045;-86
2022/02/07 00:26:41;;;;;;;0.03;0.00;;;2.00;99.90;;;;;;5026114;28;20037;-85
2022/02/07 00:29:12;;;;;;;0.00;0.00;;;1.90;99.90;;;;;;5046622;28;20024;-83
2022/02/07 00:31:37;;;;;;;0.00;0.00;;;1.80;99.90;;;;;;5032034;28;20097;-84
2022/02/07 00:34:04;;;;;;;0.00;0.00;;;1.70;99.90;;;;;;5017853;28;20111;-84
2022/02/07 00:36:31;;;;;;;0.00;0.00;;;1.60;99.90;;;;;;5019595;28;20030;-85
2022/02/07 00:39:04;;;;;;;0.00;0.00;;;1.50;99.90;;;;;;5024118;28;20076;-84
2022/02/07 00:44:29;;;;;;;0.00;0.00;;;1.50;99.90;;;;;;5028166;28;20030;-84
2022/02/07 00:47:05;;;;;;;1.25;0.00;;;1.40;99.90;;;;;;5036142;28;20098;-84
2022/02/07 00:49:31;;;;;;;0.00;0.00;;;1.50;99.90;;;;;;5030740;28;20026;-84
2022/02/07 00:51:57;;;;;;;0.15;0.10;;;1.40;99.90;;;;;;5028663;28;20101;-84
2022/02/07 00:54:23;;;;;;;0.38;0.00;;;1.50;99.90;;;;;;5029105;28;20269;-85
2022/02/07 00:56:49;;;;;;;0.10;0.10;;;1.50;99.90;;;;;;5028011;28;20037;-84
2022/02/07 00:59:15;;;;;;;0.13;0.00;;;1.50;99.90;;;;;;5028442;28;20033;-84
2022/02/07 01:01:41;;;;;;;0.52;0.00;;;1.50;99.90;;;;;;5024047;28;20033;-85
2022/02/07 01:04:07;;;;;;;0.00;0.00;;;1.50;99.90;;;;;;5025268;28;20137;-85
2022/02/07 01:06:33;;;;;;;0.00;0.00;;;1.50;99.90;;;;;;5023879;28;20037;-84
2022/02/07 01:11:55;;;;;;;0.03;0.00;;;1.40;99.90;;;;;;5024634;28;20029;-84
2022/02/07 01:14:41;;;;;;;0.15;0.10;;;1.50;99.90;;;;;;5024996;28;20509;-84
2022/02/07 01:18:09;;;;;;;0.03;0.03;;;1.50;99.90;;;;;;5023960;28;20034;-84
2022/02/07 01:47:52;;;;;;;0.08;0.00;;;1.10;99.90;;;;;;5025572;28;20033;-84
2022/02/07 01:50:42;;;;;;;0.00;0.00;;;1.10;99.90;;;;;;5028986;28;20037;-82
2022/02/07 01:55:36;;;;;;;0.00;0.00;;;1.10;99.90;;;;;;5025846;28;20076;-83
2022/02/07 01:58:03;;;;;;;0.10;0.10;;;1.10;99.90;;;;;;5023932;28;20025;-81
2022/02/07 02:00:29;;;;;;;0.10;0.00;;;1.20;99.90;;;;;;5025960;28;20105;-85
2022/02/07 02:02:55;;;;;;;0.08;0.08;;;1.20;99.90;;;;;;5022819;28;20063;-83
2022/02/07 02:05:22;;;;;;;0.82;0.10;;;1.20;99.90;;;;;;5022984;28;20045;-83
2022/02/07 02:07:49;;;;;;;0.20;0.20;;;1.20;99.90;;;;;;5022259;28;20026;-82
2022/02/07 02:10:15;;;;;;;0.13;0.10;;;1.30;99.90;;;;;;5025959;28;20022;-82
2022/02/07 02:12:53;;;;;;;0.08;0.08;;;1.30;99.90;;;;;;5024641;28;20052;-83
2022/02/07 02:37:31;;;;;;;0.10;0.10;;;1.30;99.90;;;;;;5034832;28;20034;-81
2022/02/07 02:45:47;;;;;;;0.10;0.10;;;1.30;99.90;;;;;;5031027;28;20145;-82
2022/02/07 02:47:55;;;;;;;0.00;0.00;;;1.30;99.90;;;;;;5031472;28;20108;-82
2022/02/07 02:50:30;;;;;;;0.10;0.10;;;1.30;99.90;;;;;;5027920;28;20557;-83
2022/02/07 02:52:58;;;;;;;0.55;0.13;;;1.30;99.90;;;;;;5026970;28;20045;-81
2022/02/07 02:55:25;;;;;;;0.32;0.10;;;1.30;99.90;;;;;;5025790;28;20022;-83
2022/02/07 02:57:51;;;;;;;0.63;0.20;;;1.40;99.90;;;;;;5025957;28;20052;-82
2022/02/07 03:00:17;;;;;;;0.35;0.00;;;1.40;99.90;;;;;;5027189;28;20029;-82
2022/02/07 03:02:43;;;;;;;2.08;0.10;;;1.30;99.90;;;;;;5026508;28;20065;-81
2022/02/07 03:05:09;;;;;;;1.00;0.20;;;1.40;99.90;;;;;;5029455;28;20026;-82
2022/02/07 03:07:36;;;;;;;0.20;0.10;;;1.30;99.90;;;;;;5027460;28;20356;-82
2022/02/07 03:10:03;;;;;;;0.75;0.10;;;1.30;99.90;;;;;;5035355;28;20018;-82
2022/02/07 03:12:32;;;;;;;1.42;0.10;;;1.30;99.90;;;;;;5028022;28;20034;-82
2022/02/07 03:16:36;;;;;;;0.20;0.08;;;1.30;99.90;;;;;;5028551;28;20233;-82
2022/02/07 03:17:46;;;;;;;0.00;0.00;;;1.30;99.90;;;;;;5027498;28;20053;-80
2022/02/07 03:20:13;;;;;;;1.50;1.00;;;1.40;99.90;;;;;;5028786;28;20041;-80
2022/02/07 03:22:39;;;;;;;0.10;0.10;;;1.40;99.90;;;;;;5032190;28;20050;-81
2022/02/07 03:25:05;;;;;;;1.20;0.20;;;1.40;99.90;;;;;;5020253;28;20041;-80
2022/02/07 03:27:31;;;;;;;0.28;0.17;;;1.40;99.90;;;;;;5021278;28;20096;-80
2022/02/07 03:29:56;;;;;;;1.75;0.30;;;1.40;99.90;;;;;;5025232;28;20022;-79
2022/02/07 03:32:22;;;;;;;1.52;0.20;;;1.40;99.90;;;;;;5033378;28;20030;-80
2022/02/07 03:34:48;;;;;;;0.10;0.10;;;1.40;99.90;;;;;;5037035;28;20034;-79
2022/02/07 03:37:13;;;;;;;0.25;0.08;;;1.30;99.90;;;;;;5030869;28;20425;-81
2022/02/07 03:39:39;;;;;;;0.20;0.17;;;1.40;99.90;;;;;;5024139;28;20026;-81
2022/02/07 03:42:05;;;;;;;0.30;0.10;;;1.40;99.90;;;;;;5023882;28;20069;-81
2022/02/07 03:44:31;;;;;;;0.35;0.15;;;1.40;99.90;;;;;;5030068;23;20034;-79
2022/02/07 03:46:56;;;;;;;0.40;0.15;;;1.40;99.90;;;;;;4998681;28;20038;-79
2022/02/07 03:49:22;;;;;;;0.32;0.22;;;1.40;99.90;;;;;;4997906;28;20101;-77
2022/02/07 03:51:48;;;;;;;1.20;0.13;;;1.50;99.90;;;;;;4997449;28;20110;-77
2022/02/07 03:54:14;;;;;;;1.70;0.20;;;1.50;99.90;;;;;;4996533;28;20022;-77
2022/02/07 03:56:39;;;;;;;3.00;0.20;;;1.50;99.90;;;;;;4996962;28;20030;-78
2022/02/07 03:59:05;;;;;;;0.15;0.13;;;1.50;99.90;;;;;;4996486;28;20026;-79
2022/02/07 04:01:34;;;;;;;0.40;0.17;;;1.50;99.90;;;;;;4997158;28;20034;-78
2022/02/07 04:04:00;;;;;;;1.58;0.30;;;1.60;99.90;;;;;;4997721;28;20129;-79
2022/02/07 04:06:26;;;;;;;0.47;0.30;;;1.60;99.90;;;;;;5010840;28;20514;-79
2022/02/07 04:08:57;;;;;;;1.45;0.40;;;1.60;99.90;;;;;;4996965;28;20053;-79
2022/02/07 04:11:34;;;;;;;0.70;0.30;;;1.60;99.90;;;;;;4995232;28;20015;-78
2022/02/07 04:14:00;;;;;;;1.30;0.40;;;1.60;99.90;;;;;;4996076;28;20034;-78
2022/02/07 04:16:35;;;;;;;0.28;0.22;;;1.70;99.90;;;;;;4995727;28;20018;-78
2022/02/07 04:19:06;;;;;;;2.05;0.60;;;1.70;99.90;;;;;;4975933;28;20030;-78
2022/02/07 04:21:32;;;;;;;1.95;1.25;;;1.70;99.90;;;;;;4980803;28;20406;-78
2022/02/07 04:23:59;;;;;;;1.83;0.30;;;1.70;99.90;;;;;;5010677;28;20117;-78
2022/02/07 04:26:25;;;;;;;0.77;0.38;;;1.80;99.90;;;;;;4995228;28;20022;-78
2022/02/07 04:28:51;;;;;;;0.30;0.30;;;1.80;99.90;;;;;;4995216;28;20026;-79
2022/02/07 04:31:17;;;;;;;0.32;0.30;;;1.80;99.90;;;;;;4994601;28;20049;-78
2022/02/07 04:33:43;;;;;;;2.58;0.30;;;1.80;99.90;;;;;;4995337;28;20101;-77
2022/02/07 04:36:08;;;;;;;2.45;0.30;;;1.80;99.90;;;;;;4995280;28;20041;-78
2022/02/07 04:38:34;;;;;;;2.58;0.47;;;1.80;99.90;;;;;;4994457;28;20029;-77
2022/02/07 04:41:00;;;;;;;0.98;0.30;;;1.80;99.90;;;;;;4998078;28;20013;-80
2022/02/07 04:43:26;;;;;;;1.70;0.50;;;1.80;99.90;;;;;;5012079;28;20388;-77
2022/02/07 04:46:09;;;;;;;1.73;0.70;;;1.80;99.90;;;;;;5014967;28;20398;-78
2022/02/07 04:48:58;;;;;;;0.55;0.52;;;1.80;99.90;;;;;;4994303;28;20022;-78
2022/02/07 04:59:22;;;;;;;2.35;0.43;;;1.50;99.90;;;;;;4995190;28;20081;-77
2022/02/07 05:01:52;;;;;;;1.20;0.30;;;1.50;99.90;;;;;;4995351;28;20054;-79
2022/02/07 05:04:41;;;;;;;4.75;0.50;;;1.40;99.90;;;;;;5011216;28;20030;-79
2022/02/07 05:15:18;;;;;;;5.18;0.70;;;1.20;99.90;;;;;;4996473;28;20076;-77
2022/02/07 05:17:44;;;;;;;2.28;0.90;;;1.20;99.90;;;;;;4995328;28;20014;-77
2022/02/07 05:20:10;;;;;;;4.15;0.90;;;1.30;99.90;;;;;;4994925;28;20045;-76
2022/02/07 05:22:37;;;;;;;5.55;0.95;;;1.40;99.90;;;;;;4996561;28;20030;-78
2022/02/07 05:25:03;;;;;;;5.32;0.77;;;1.50;99.90;;;;;;4993612;28;20034;-77
2022/02/07 05:27:29;;;;;;;3.97;1.10;;;1.60;99.90;;;;;;5008927;28;20023;-77
2022/02/07 05:29:56;;;;;;;1.65;0.50;;;1.60;99.90;;;;;;4994393;28;20360;-78
2022/02/07 05:32:22;;;;;;;5.35;0.90;;;1.70;99.90;;;;;;4990832;28;20400;-77
2022/02/07 05:34:48;;;;;;;4.65;0.77;;;1.70;99.90;;;;;;4994327;28;20045;-77
2022/02/07 05:37:15;;;;;;;4.95;0.68;;;1.80;99.90;;;;;;5001955;28;20474;-79
2022/02/07 05:39:43;;;;;;;5.88;0.90;;;1.80;99.90;;;;;;4995832;28;20027;-78
2022/02/07 05:42:09;;;;;;;5.15;0.95;;;1.80;99.90;;;;;;4995159;28;20030;-78
2022/02/07 05:44:38;;;;;;;4.35;0.60;;;1.90;99.90;;;;;;4995612;28;20434;-78
2022/02/07 05:47:04;;;;;;;2.58;0.50;;;1.90;99.90;;;;;;4994939;28;20025;-78
2022/02/07 05:49:30;;;;;;;2.72;0.70;;;1.90;99.90;;;;;;4992960;28;20026;-77
2022/02/07 05:51:56;;;;;;;2.60;0.63;;;1.90;99.90;;;;;;4993975;28;20035;-78
2022/02/07 05:54:22;;;;;;;1.80;0.80;;;1.90;99.90;;;;;;4994882;28;20057;-78
2022/02/07 05:56:48;;;;;;;1.58;0.68;;;1.90;99.90;;;;;;4994499;28;20047;-79
2022/02/07 05:59:14;;;;;;;3.80;0.80;;;1.90;99.90;;;;;;4994937;28;20298;-79
2022/02/07 06:01:39;;;;;;;2.53;0.90;;;1.80;99.90;;;;;;4994551;28;20069;-79
2022/02/07 06:04:05;;;;;;;2.97;0.57;;;1.70;99.90;;;;;;4995886;28;20497;-81
2022/02/07 06:06:31;;;;;;;3.40;0.50;;;1.80;99.90;;;;;;5014444;28;20022;-82
2022/02/07 06:08:57;;;;;;;1.77;0.55;;;1.70;99.90;;;;;;4997342;28;20069;-82
2022/02/07 06:11:22;;;;;;;3.00;0.93;;;1.70;99.90;;;;;;5000529;28;20029;-84
2022/02/07 06:13:48;;;;;;;3.13;0.68;;;1.70;99.90;;;;;;4999879;28;20031;-83
2022/02/07 06:16:17;;;;;;;2.53;0.60;;;1.60;99.90;;;;;;4998049;28;20027;-82
2022/02/07 06:18:49;;;;;;;3.50;0.52;;;1.60;99.90;;;;;;4998147;28;20022;-83
2022/02/07 06:21:16;;;;;;;1.67;0.40;;;1.60;99.90;;;;;;5009136;28;20022;-84
2022/02/07 06:23:42;;;;;;;3.45;0.50;;;1.60;99.90;;;;;;5012425;28;20022;-84
2022/02/07 06:26:08;;;;;;;2.28;0.50;;;1.60;99.90;;;;;;5007261;28;20057;-84
2022/02/07 06:28:34;;;;;;;5.72;0.40;;;1.60;99.90;;;;;;5016399;28;20022;-85
2022/02/07 06:31:00;;;;;;;0.98;0.30;;;1.70;99.90;;;;;;5016353;28;20081;-84
2022/02/07 06:33:25;;;;;;;1.30;0.25;;;1.70;99.90;;;;;;5016183;28;20025;-83
2022/02/07 06:35:53;;;;;;;1.95;0.45;;;1.70;99.90;;;;;;5018111;28;20030;-83
2022/02/07 06:38:19;;;;;;;1.40;0.52;;;1.60;99.90;;;;;;5014944;28;20086;-83
2022/02/07 06:40:45;;;;;;;1.35;0.50;;;1.60;99.90;;;;;;5010391;28;20061;-81
2022/02/07 06:43:10;;;;;;;2.00;0.70;;;1.50;99.90;;;;;;4992716;28;20072;-81
2022/02/07 06:45:36;;;;;;;2.60;0.45;;;1.30;99.90;;;;;;5019228;28;20039;-82
2022/02/07 06:48:03;;;;;;;1.25;0.60;;;1.30;99.90;;;;;;5019825;28;20030;-80
2022/02/07 06:50:29;;;;;;;1.30;0.70;;;1.30;99.90;;;;;;5019765;28;20042;-80
2022/02/07 06:52:55;;;;;;;0.77;0.77;;;1.30;99.90;;;;;;5020236;28;20074;-81
2022/02/07 06:55:21;;;;;;;3.30;0.85;;;1.40;99.90;;;;;;5017862;28;20032;-80
2022/02/07 06:57:46;;;;;;;6.57;0.68;;;1.40;99.90;;;;;;5018605;28;20053;-80
2022/02/07 07:00:13;;;;;;;6.25;0.88;;;1.40;99.90;;;;;;5009642;28;20032;-81
2022/02/07 07:02:39;;;;;;;3.50;0.93;;;1.40;99.90;;;;;;5019913;28;20073;-81
2022/02/07 07:05:13;;;;;;;6.32;0.77;;;1.50;99.90;;;;;;5006708;28;20103;-80
2022/02/07 07:07:39;;;;;;;5.53;0.80;;;1.50;99.90;;;;;;5016351;28;20031;-79
2022/02/07 07:10:06;;;;;;;2.15;0.65;;;1.50;99.90;;;;;;5003778;28;20030;-80
2022/02/07 07:12:32;;;;;;;3.42;1.00;;;1.50;99.90;;;;;;5006977;28;20025;-82
2022/02/07 07:15:16;;;;;;;2.25;0.95;;;1.60;99.90;;;;;;5018580;28;20019;-80
2022/02/07 07:17:42;;;;;;;3.60;0.90;;;1.60;99.90;;;;;;5018850;28;20026;-80
2022/02/07 07:20:11;;;;;;;7.82;1.02;;;1.60;99.90;;;;;;5018714;28;20121;-80
2022/02/07 07:22:37;;;;;;;1.77;0.80;;;1.70;99.90;;;;;;5003467;28;20034;-80
2022/02/07 07:25:04;;;;;;;2.28;1.17;;;1.70;99.90;;;;;;5001836;28;20069;-80
2022/02/07 07:27:36;;;;;;;5.35;1.33;;;1.70;99.90;;;;;;5001736;28;20037;-81
2022/02/07 07:30:03;;;;;;;3.13;0.93;;;1.80;99.90;;;;;;5002446;28;20108;-80
2022/02/07 07:32:31;;;;;;;4.88;1.38;;;1.80;99.90;;;;;;5001717;28;20030;-81
2022/02/07 07:34:57;;;;;;;4.82;1.20;;;1.80;99.90;;;;;;5002335;28;20022;-82
2022/02/07 07:37:23;;;;;;;1.33;0.90;;;1.90;99.90;;;;;;5017457;28;20077;-81
2022/02/07 07:39:49;;;;;;;5.25;1.08;;;1.90;99.90;;;;;;5001367;28;20410;-79
2022/02/07 07:42:15;;;;;;;3.95;1.20;;;2.00;99.90;;;;;;5002581;28;20475;-82
2022/02/07 07:44:42;;;;;;;5.35;1.08;;;2.00;99.90;;;;;;5002080;28;20033;-80
2022/02/07 07:47:15;;;;;;;2.20;0.90;;;2.00;99.90;;;;;;5002555;28;20061;-82
2022/02/07 07:49:56;;;;;;;4.25;1.08;;;2.10;99.90;;;;;;5001952;28;20029;-82
2022/02/07 07:52:31;;;;;;;0.95;0.77;;;2.20;99.90;;;;;;5001871;28;20034;-81
2022/02/07 07:55:23;;;;;;;2.80;0.77;;;2.20;99.90;;;;;;4999167;28;20053;-81
2022/02/07 08:03:14;;;;;;;3.92;1.23;;;2.30;99.90;;;;;;5000124;28;20044;-81
2022/02/07 08:05:52;;;;;;;5.95;1.00;;;2.30;99.90;;;;;;5000760;28;20053;-82
2022/02/07 08:08:29;;;;;;;3.67;1.20;;;2.30;99.90;;;;;;5003415;28;20042;-82
2022/02/07 08:11:05;;;;;;;1.73;0.80;;;2.20;99.90;;;;;;5001998;28;20023;-81
2022/02/07 08:13:33;;;;;;;9.02;1.10;;;2.30;99.90;;;;;;5002612;28;20026;-81
2022/02/07 08:15:59;;;;;;;5.15;1.00;;;2.30;99.90;;;;;;5000822;28;20097;-81
2022/02/07 08:18:25;;;;;;;4.38;0.95;;;2.30;99.90;;;;;;5002669;28;20072;-80
2022/02/07 08:20:50;;;;;;;7.20;1.13;;;2.40;99.90;;;;;;5005574;28;20122;-81
2022/02/07 08:23:16;;;;;;;6.60;1.10;;;2.50;99.90;;;;;;5004653;28;20030;-80
2022/02/07 08:25:42;;;;;;;15.80;1.10;;;2.50;99.90;;;;;;5001459;28;20483;-82
2022/02/07 08:28:09;;;;;;;4.47;1.10;;;2.60;99.90;;;;;;5002184;28;20038;-82
2022/02/07 08:30:35;;;;;;;5.40;1.17;;;2.50;99.90;;;;;;5017887;28;20027;-81
2022/02/07 08:33:03;;;;;;;6.95;1.13;;;2.60;99.90;;;;;;5014218;28;20080;-81
2022/02/07 08:35:29;;;;;;;6.35;1.27;;;2.60;99.90;;;;;;5006203;28;20022;-79
2022/02/07 08:37:56;;;;;;;7.75;1.67;;;2.60;99.90;;;;;;5004420;28;20026;-80
2022/02/07 08:40:23;;;;;;;3.90;1.40;;;2.60;99.90;;;;;;5013034;28;20037;-81
2022/02/07 08:42:49;;;;;;;10.70;1.55;;;2.60;99.90;;;;;;5004855;28;20028;-80
2022/02/07 08:45:17;;;;;;;11.23;1.42;;;2.60;99.90;;;;;;5000622;28;20033;-81
2022/02/07 08:47:43;;;;;;;5.03;1.25;;;2.50;99.90;;;;;;4999371;28;20022;-80
2022/02/07 08:50:11;;;;;;;6.68;1.52;;;2.50;99.90;;;;;;4999280;28;20070;-81
2022/02/07 08:52:42;;;;;;;10.60;1.25;;;2.50;99.90;;;;;;4999181;28;20057;-80
2022/02/07 08:55:12;;;;;;;3.92;0.90;;;2.60;99.90;;;;;;4998678;28;20479;-80
2022/02/07 08:57:43;;;;;;;3.90;1.10;;;2.60;99.90;;;;;;4999186;28;20030;-80
2022/02/07 09:07:48;;;;;;;4.30;0.95;;;2.50;99.90;;;;;;5003064;28;20041;-85
2022/02/07 09:10:14;;;;;;;;;;;2.60;99.90;;;;;;5001846;28;20026;-80
2022/02/07 09:12:43;;;;;;;6.03;1.25;;;2.60;99.90;;;;;;4999950;28;19937;-80
2022/02/07 09:17:55;;;;;;;9.52;1.00;;;2.70;99.90;;;;;;5014499;28;20053;-79
2022/02/07 09:20:21;;;;;;;7.05;1.05;;;2.80;99.90;;;;;;5013704;28;20041;-81
2022/02/07 09:22:47;;;;;;;13.82;1.52;;;2.80;99.90;;;;;;5000198;28;20019;-82
2022/02/07 09:25:14;;;;;;;4.05;1.02;;;2.80;99.90;;;;;;4999347;28;20463;-80
2022/02/07 09:27:40;;;;;;;11.20;1.63;;;2.80;99.90;;;;;;5012158;28;20509;-81
2022/02/07 09:30:07;;;;;;;6.45;1.23;;;2.90;99.90;;;;;;5002721;28;20018;-81
2022/02/07 09:32:34;;;;;;;7.60;1.27;;;3.10;99.90;;;;;;5007502;28;20095;-79
2022/02/07 09:35:01;;;;;;;6.00;1.05;;;3.20;99.90;;;;;;5006917;28;20026;-81
2022/02/07 09:37:26;;;;;;;9.30;1.42;;;3.20;99.90;;;;;;5009692;28;20090;-80
2022/02/07 09:39:55;;;;;;;4.45;0.90;;;3.40;99.90;;;;;;5008490;28;20026;-81
2022/02/07 09:42:21;;;;;;;6.60;1.27;;;3.80;99.90;;;;;;5005984;28;20031;-80
2022/02/07 09:44:53;;;;;;;8.70;1.65;;;4.00;99.90;;;;;;5005673;28;20038;-81
2022/02/07 09:47:19;;;;;;;10.57;1.52;;;3.90;99.90;;;;;;5000533;28;20019;-80
2022/02/07 09:49:46;;;;;;;9.43;1.80;;;3.90;99.90;;;;;;4999193;28;20035;-81
2022/02/07 09:52:12;;;;;;;7.63;1.13;;;3.80;99.90;;;;;;4997686;28;20038;-80
2022/02/07 09:54:39;;;;;;;10.68;1.48;;;3.60;99.90;;;;;;4999500;28;20411;-82
2022/02/07 09:57:07;;;;;;;6.55;1.23;;;3.50;99.90;;;;;;5000401;28;20026;-81
2022/02/07 09:59:33;;;;;;;10.77;1.60;;;3.30;99.90;;;;;;5000684;28;20030;-81
2022/02/07 10:02:03;;;;;;;6.32;1.35;;;3.30;99.90;;;;;;5002153;28;20019;-79
2022/02/07 10:04:41;;;;;;;8.32;1.35;;;3.30;99.90;;;;;;5002907;28;20019;-80
2022/02/07 10:07:27;;;;;;;8.07;1.92;;;3.30;99.90;;;;;;5006429;28;20113;-80
2022/02/07 10:10:18;;;;;;;4.82;1.50;;;3.40;99.90;;;;;;5001334;28;20042;-80
2022/02/07 10:15:32;;;;;;;12.95;1.60;;;3.50;99.90;;;;;;4995809;28;20027;-79
2022/02/07 10:18:07;;;;;;;7.53;1.30;;;3.50;99.90;;;;;;5005502;28;20038;-82
2022/02/07 10:35:16;;;;;;;11.95;1.27;;;3.70;96.10;;;;;;5024389;28;20057;-82
2022/02/07 10:38:03;;;;;;;5.07;1.02;;;3.70;94.30;;;;;;5019820;28;20308;-81
2022/02/07 10:45:58;;;;;;;5.20;1.13;;;3.70;94.50;;;;;;5007677;28;20424;-79
2022/02/07 10:48:54;;;;;;;7.50;1.38;;;3.70;94.40;;;;;;5010162;28;20022;-82
2022/02/07 10:51:29;;;;;;;5.88;1.10;;;3.80;93.60;;;;;;5007115;28;20022;-83
2022/02/07 10:54:02;;;;;;;10.68;1.40;;;3.80;93.60;;;;;;5005910;28;20018;-80
2022/02/07 10:59:09;;;;;;;7.88;1.33;;;4.00;93.10;;;;;;5008571;28;20093;-81
2022/02/07 11:04:09;;;;;;;6.20;1.35;;;4.00;92.30;;;;;;5007557;28;20054;-82
2022/02/07 11:06:43;;;;;;;5.70;1.30;;;4.00;91.80;;;;;;5007494;28;20030;-80
2022/02/07 11:09:18;;;;;;;14.70;1.40;;;3.90;92.00;;;;;;5006967;28;20023;-81
2022/02/07 11:19:40;;;;;;;9.55;1.15;;;3.90;92.40;;;;;;5008594;28;20033;-79
2022/02/07 11:27:30;;;;;;;9.82;1.50;;;4.10;92.40;;;;;;5017818;28;19906;-79
2022/02/07 11:29:57;;;;;;;4.75;1.30;;;4.20;92.30;;;;;;5025788;28;20022;-81
2022/02/07 11:32:42;;;;;;;3.75;0.90;;;4.30;92.10;;;;;;5025406;28;20038;-81
2022/02/07 11:35:17;;;;;;;8.13;1.60;;;4.40;91.60;;;;;;5026088;28;20029;-81
2022/02/07 11:37:49;;;;;;;7.43;1.60;;;4.40;91.30;;;;;;5032529;28;20036;-81
2022/02/07 11:40:34;;;;;;;4.35;0.93;;;4.30;91.10;;;;;;5033023;28;20026;-82
2022/02/07 11:43:18;;;;;;;6.70;1.20;;;4.30;91.50;;;;;;5026023;28;20581;-81
2022/02/07 11:45:54;;;;;;;7.63;1.60;;;4.20;91.40;;;;;;5025133;28;20479;-81
2022/02/07 11:48:29;;;;;;;4.63;1.27;;;4.10;91.50;;;;;;5023546;28;20026;-81
2022/02/07 11:51:04;;;;;;;11.23;1.45;;;4.00;92.20;;;;;;5025524;28;20083;-80
2022/02/07 11:53:46;;;;;;;4.28;1.13;;;4.10;91.30;;;;;;5025965;28;20030;-81
2022/02/07 11:56:25;;;;;;;7.07;1.25;;;4.20;91.90;;;;;;5023752;28;20006;-80
2022/02/07 11:59:09;;;;;;;5.32;1.23;;;4.30;91.40;;;;;;5004956;28;20042;-80
2022/02/07 12:02:15;;;;;;;9.90;1.02;;;4.50;90.70;;;;;;5007791;28;20034;-81
2022/02/07 12:04:48;;;;;;;6.28;1.20;;;4.40;90.40;;;;;;5006649;28;20026;-81
2022/02/07 12:07:24;;;;;;;3.33;1.02;;;4.40;91.10;;;;;;5006149;28;20105;-82
2022/02/07 12:10:13;;;;;;;4.43;0.88;;;4.40;90.70;;;;;;5005333;28;20018;-81
2022/02/07 12:12:40;;;;;;;5.07;1.38;;;4.50;90.50;;;;;;5005680;28;20029;-81
2022/02/07 12:15:07;;;;;;;8.60;1.30;;;4.60;90.60;;;;;;5003737;28;20041;-81
2022/02/07 12:17:37;;;;;;;7.82;1.98;;;4.70;90.10;;;;;;5020839;28;20026;-81
2022/02/07 12:20:05;;;;;;;5.32;1.55;;;4.60;89.20;;;;;;5006020;28;20082;-82
2022/02/07 12:22:51;;;;;;;5.40;1.27;;;4.60;89.60;;;;;;5006058;28;20468;-80
2022/02/07 12:25:38;;;;;;;3.42;1.20;;;4.60;90.10;;;;;;5006949;28;20039;-81
2022/02/07 12:28:08;;;;;;;4.75;1.25;;;4.70;88.70;;;;;;5024481;28;20105;-81
2022/02/07 12:33:09;;;;;;;11.05;1.20;;;4.60;89.20;;;;;;5004973;28;20505;-79
2022/02/07 12:35:35;;;;;;;7.95;1.52;;;4.60;89.10;;;;;;5006528;28;20030;-80
2022/02/07 12:38:01;;;;;;;7.63;1.00;;;4.60;88.90;;;;;;5005672;28;20030;-81
2022/02/07 12:40:27;;;;;;;7.40;1.13;;;4.50;90.00;;;;;;5009151;28;20039;-83
2022/02/07 12:42:55;;;;;;;6.35;1.20;;;4.50;90.10;;;;;;5014645;28;20031;-80
2022/02/07 12:45:26;;;;;;;7.53;1.17;;;4.50;90.30;;;;;;5014549;28;20049;-83
2022/02/07 12:47:56;;;;;;;9.30;1.60;;;4.60;90.50;;;;;;5023693;28;20034;-82
2022/02/07 12:50:23;;;;;;;7.95;1.67;;;4.50;89.80;;;;;;5006298;28;20037;-82
2022/02/07 12:52:53;;;;;;;6.35;1.35;;;4.50;90.10;;;;;;5007209;28;20053;-84
2022/02/07 12:55:19;;;;;;;3.22;1.00;;;4.50;90.10;;;;;;5007776;28;20026;-82
2022/02/07 12:57:45;;;;;;;7.97;1.23;;;4.40;89.60;;;;;;5028322;28;20084;-80
2022/02/07 13:00:14;;;;;;;6.43;1.85;;;4.30;90.20;;;;;;5026202;28;20454;-81
2022/02/07 13:02:45;;;;;;;5.75;1.42;;;4.30;90.50;;;;;;5007006;28;20054;-82
2022/02/07 13:05:13;;;;;;;7.65;1.23;;;4.20;90.70;;;;;;5006639;28;20022;-82
2022/02/07 13:07:45;;;;;;;3.42;1.00;;;4.10;90.80;;;;;;5005805;28;20010;-82
2022/02/07 13:10:13;;;;;;;3.80;1.10;;;4.10;90.60;;;;;;5005006;28;20038;-83
2022/02/07 13:15:23;;;;;;;5.20;1.00;;;4.10;90.80;;;;;;5005300;28;20030;-81
2022/02/07 13:17:55;;;;;;;6.57;1.35;;;4.00;91.10;;;;;;5003429;28;20126;-80
2022/02/07 13:20:22;;;;;;;;;;;4.00;91.10;;;;;;5002486;28;20085;-81
2022/02/07 13:23:07;;;;;;;10.93;2.55;;;4.00;91.10;;;;;;5003405;28;20204;-80
2022/02/07 13:25:47;;;;;;;8.05;1.08;;;4.00;91.00;;;;;;5006447;28;20021;-82
2022/02/07 13:28:20;;;;;;;4.43;1.30;;;3.90;91.20;;;;;;5014484;28;20014;-82
2022/02/07 13:30:51;;;;;;;7.55;1.60;;;3.80;91.40;;;;;;5021976;28;20049;-82
2022/02/07 13:33:17;;;;;;;7.75;1.23;;;3.80;91.80;;;;;;5008364;28;20060;-81
2022/02/07 13:35:45;;;;;;;5.38;1.30;;;3.90;92.10;;;;;;5003910;28;20101;-81
2022/02/07 13:38:14;;;;;;;6.72;2.35;;;4.00;91.80;;;;;;5004015;28;20030;-81
2022/02/07 13:40:45;;;;;;;4.15;1.30;;;4.00;91.70;;;;;;5020739;28;20481;-82
2022/02/07 13:43:21;;;;;;;1.67;1.05;;;4.00;91.20;;;;;;5004569;28;20591;-83
2022/02/07 13:45:52;;;;;;;3.60;1.33;;;4.00;91.50;;;;;;5003639;28;20526;-82
2022/02/07 13:48:22;;;;;;;4.35;1.45;;;3.90;92.10;;;;;;5005403;28;20037;-82
2022/02/07 13:50:53;;;;;;;5.32;1.27;;;4.00;91.60;;;;;;5005441;28;20027;-84
2022/02/07 13:53:24;;;;;;;6.80;1.00;;;3.90;91.40;;;;;;5005614;28;20034;-82
2022/02/07 13:55:55;;;;;;;3.83;1.20;;;3.90;91.60;;;;;;5005253;28;20034;-81
2022/02/07 13:58:33;;;;;;;9.27;1.35;;;3.90;91.70;;;;;;4999352;28;20058;-80
2022/02/07 14:01:04;;;;;;;4.07;1.20;;;3.90;91.60;;;;;;4984628;28;20462;-80
2022/02/07 14:03:42;;;;;;;6.27;1.47;;;4.00;91.50;;;;;;4992875;28;20082;-79
2022/02/07 14:06:12;;;;;;;4.65;1.52;;;3.90;91.50;;;;;;5004076;28;20681;-80
2022/02/07 14:08:45;;;;;;;5.22;1.40;;;3.90;91.40;;;;;;5004236;28;20029;-80
2022/02/07 14:11:21;;;;;;;6.75;1.30;;;3.90;91.60;;;;;;5003350;28;20094;-81
2022/02/07 14:13:50;;;;;;;7.35;1.40;;;3.90;91.50;;;;;;5001701;28;20035;-80
2022/02/07 14:16:18;;;;;;;8.73;1.75;;;4.00;91.50;;;;;;4984902;28;20070;-80
2022/02/07 14:18:45;;;;;;;5.80;1.48;;;4.00;91.40;;;;;;5001592;28;20038;-80
2022/02/07 14:21:15;;;;;;;12.75;2.10;;;4.10;91.40;;;;;;5005459;28;20042;-82
2022/02/07 14:23:52;;;;;;;9.82;1.50;;;4.10;91.10;;;;;;5007763;28;20042;-81
2022/02/07 14:26:21;;;;;;;5.55;1.25;;;4.20;90.70;;;;;;5016841;28;20022;-81
2022/02/07 14:28:51;;;;;;;5.55;1.42;;;4.20;90.60;;;;;;5020386;28;20011;-80
2022/02/07 14:31:18;;;;;;;9.82;1.98;;;4.10;90.70;;;;;;5015953;28;20054;-80
2022/02/07 14:33:44;;;;;;;5.07;1.65;;;4.00;91.00;;;;;;5016126;28;20058;-80
2022/02/07 14:36:10;;;;;;;8.63;1.65;;;4.00;91.20;;;;;;5030606;28;20050;-78
2022/02/07 14:38:37;;;;;;;11.02;1.88;;;4.00;90.90;;;;;;5012338;28;20034;-79
2022/02/07 14:41:08;;;;;;;8.05;1.52;;;4.00;90.90;;;;;;5013573;28;20091;-79
2022/02/07 14:43:34;;;;;;;4.38;1.35;;;4.00;91.10;;;;;;5011532;28;20022;-79
2022/02/07 14:48:37;;;;;;;7.47;1.27;;;4.00;91.00;;;;;;5010927;28;20041;-79
2022/02/07 14:51:06;;;;;;;4.65;1.27;;;4.10;90.60;;;;;;5017097;28;20023;-79
2022/02/07 14:53:37;;;;;;;4.78;1.02;;;4.10;90.60;;;;;;5014302;28;20042;-82
2022/02/07 14:56:03;;;;;;;5.18;1.55;;;4.10;90.60;;;;;;5015015;28;20026;-81
2022/02/07 14:58:29;;;;;;;7.68;1.50;;;4.10;90.70;;;;;;5019510;28;20073;-80
2022/02/07 15:00:55;;;;;;;5.05;1.35;;;4.00;90.50;;;;;;5027689;28;20030;-78
2022/02/07 15:03:22;;;;;;;3.75;1.30;;;4.00;90.50;;;;;;5027695;28;20056;-81
2022/02/07 15:05:54;;;;;;;4.18;0.93;;;4.00;90.50;;;;;;5029349;28;20421;-79
2022/02/07 15:08:23;;;;;;;11.05;1.50;;;3.90;90.80;;;;;;5025958;28;20022;-80
2022/02/07 15:10:50;;;;;;;9.60;1.30;;;3.80;91.60;;;;;;5023808;28;20022;-80
2022/02/07 15:13:16;;;;;;;12.48;1.88;;;3.70;91.10;;;;;;5019519;28;20041;-80
2022/02/07 15:15:42;;;;;;;8.15;1.75;;;3.70;91.20;;;;;;5019715;28;20028;-79
2022/02/07 15:18:08;;;;;;;10.25;1.65;;;3.60;91.60;;;;;;5019976;28;20509;-81
2022/02/07 15:20:39;;;;;;;9.85;1.48;;;3.60;91.60;;;;;;5020907;28;20036;-81
2022/02/07 15:23:06;;;;;;;4.20;0.90;;;3.60;91.60;;;;;;5021777;28;20022;-80
2022/02/07 15:25:35;;;;;;;8.88;1.27;;;3.50;91.70;;;;;;5018069;28;20064;-79
2022/02/07 15:28:04;;;;;;;5.75;1.50;;;3.40;92.00;;;;;;5011055;28;20534;-79
2022/02/07 15:30:35;;;;;;;5.00;1.42;;;3.30;92.20;;;;;;5011679;28;20022;-80
2022/02/07 15:33:04;;;;;;;9.50;1.65;;;3.20;92.50;;;;;;5000943;28;20133;-79
2022/02/07 15:35:29;;;;;;;12.73;1.77;;;3.10;93.10;;;;;;5003914;28;20018;-79
2022/02/07 15:37:55;;;;;;;6.20;1.83;;;3.00;93.20;;;;;;5001358;28;20033;-78